createdAt,value
2022-10-06T00:00:50.379Z,100.00
2022-10-06T00:03:33.976Z,100.00
2022-10-06T00:06:03.086Z,100.00
2022-10-06T00:08:32.417Z,100.00
2022-10-06T00:10:59.756Z,100.00
2022-10-06T00:13:28.636Z,100.00
2022-10-06T00:15:56.389Z,100.00
2022-10-06T00:18:23.716Z,100.00
2022-10-06T00:20:58.902Z,100.00
2022-10-06T00:23:28.590Z,100.00
2022-10-06T00:25:56.477Z,100.00
2022-10-06T00:28:23.690Z,100.00
2022-10-06T00:30:53.578Z,100.00
2022-10-06T00:33:21.161Z,100.00
2022-10-06T00:35:56.965Z,100.00
2022-10-06T00:38:25.161Z,100.00
2022-10-06T00:40:52.472Z,100.00
2022-10-06T00:43:38.446Z,100.00
2022-10-06T00:46:08.321Z,100.00
2022-10-06T00:48:36.145Z,100.00
2022-10-06T00:51:03.866Z,100.00
2022-10-06T00:53:31.974Z,100.00
2022-10-06T00:55:59.237Z,100.00
2022-10-06T00:58:26.954Z,100.00
2022-10-06T01:00:55.358Z,100.00
2022-10-06T01:03:30.176Z,100.00
2022-10-06T01:06:00.121Z,100.00
2022-10-06T01:08:27.722Z,100.00
2022-10-06T01:10:55.164Z,100.00
2022-10-06T01:13:22.975Z,100.00
2022-10-06T01:15:56.861Z,100.00
2022-10-06T01:18:28.078Z,100.00
2022-10-06T01:21:09.423Z,100.00
2022-10-06T01:23:40.016Z,100.00
2022-10-06T01:26:10.929Z,100.00
2022-10-06T01:28:39.283Z,100.00
2022-10-06T01:31:09.121Z,100.00
2022-10-06T01:33:36.378Z,100.00
2022-10-06T01:36:04.719Z,100.00
2022-10-06T01:38:32.644Z,100.00
2022-10-06T01:41:03.883Z,100.00
2022-10-06T01:43:31.059Z,100.00
2022-10-06T01:45:59.509Z,100.00
2022-10-06T01:48:28.054Z,100.00
2022-10-06T01:50:57.912Z,100.00
2022-10-06T01:53:25.402Z,100.00
2022-10-06T01:55:58.173Z,100.00
2022-10-06T01:58:27.179Z,100.00
2022-10-06T02:00:54.752Z,100.00
2022-10-06T02:03:21.989Z,100.00
2022-10-06T02:05:49.428Z,100.00
2022-10-06T02:08:16.703Z,100.00
2022-10-06T02:10:44.255Z,100.00
2022-10-06T02:13:20.265Z,100.00
2022-10-06T02:15:47.579Z,100.00
2022-10-06T02:18:14.721Z,100.00
2022-10-06T02:20:42.122Z,100.00
2022-10-06T02:23:09.471Z,100.00
2022-10-06T02:25:36.617Z,100.00
2022-10-06T02:28:04.271Z,100.00
2022-10-06T02:30:32.739Z,100.00
2022-10-06T02:33:00.078Z,100.00
2022-10-06T02:35:28.243Z,100.00
2022-10-06T02:37:55.640Z,100.00
2022-10-06T02:40:23.156Z,100.00
2022-10-06T02:42:51.442Z,100.00
2022-10-06T02:45:21.240Z,100.00
2022-10-06T02:47:48.566Z,100.00
2022-10-06T02:50:15.991Z,100.00
2022-10-06T02:52:43.239Z,100.00
2022-10-06T02:55:11.652Z,100.00
2022-10-06T02:57:39.549Z,100.00
2022-10-06T03:00:08.524Z,100.00
2022-10-06T03:02:36.135Z,100.00
2022-10-06T03:05:05.151Z,100.00
2022-10-06T03:07:33.659Z,100.00
2022-10-06T03:10:00.815Z,100.00
2022-10-06T03:12:28.606Z,100.00
2022-10-06T03:14:55.884Z,100.00
2022-10-06T03:17:23.155Z,100.00
2022-10-06T03:19:57.025Z,100.00
2022-10-06T03:22:25.609Z,100.00
2022-10-06T03:24:55.708Z,100.00
2022-10-06T03:27:23.247Z,100.00
2022-10-06T03:29:53.545Z,100.00
2022-10-06T03:32:24.157Z,100.00
2022-10-06T03:34:53.368Z,100.00
2022-10-06T03:37:20.888Z,100.00
2022-10-06T03:39:48.419Z,100.00
2022-10-06T03:42:16.072Z,100.00
2022-10-06T03:44:43.363Z,100.00
2022-10-06T03:47:16.092Z,100.00
2022-10-06T03:49:44.562Z,100.00
2022-10-06T03:52:12.847Z,100.00
2022-10-06T03:54:40.034Z,100.00
2022-10-06T03:57:07.237Z,100.00
2022-10-06T03:59:34.860Z,100.00
2022-10-06T04:02:05.537Z,100.00
2022-10-06T04:04:37.548Z,100.00
2022-10-06T04:07:11.783Z,100.00
2022-10-06T04:09:40.133Z,100.00
2022-10-06T04:12:09.075Z,100.00
2022-10-06T04:14:38.352Z,100.00
2022-10-06T04:17:07.112Z,100.00
2022-10-06T04:19:36.740Z,100.00
2022-10-06T04:22:04.164Z,100.00
2022-10-06T04:24:32.424Z,100.00
2022-10-06T04:27:19.564Z,100.00
2022-10-06T04:29:58.533Z,100.00
2022-10-06T04:32:25.832Z,100.00
2022-10-06T04:34:53.133Z,100.00
2022-10-06T04:37:20.601Z,100.00
2022-10-06T04:39:49.222Z,100.00
2022-10-06T04:42:16.401Z,100.00
2022-10-06T04:44:44.558Z,100.00
2022-10-06T04:47:11.719Z,100.00
2022-10-06T04:49:39.620Z,100.00
2022-10-06T04:52:08.225Z,100.00
2022-10-06T04:54:37.603Z,100.00
2022-10-06T04:57:06.093Z,100.00
2022-10-06T04:59:52.416Z,100.00
2022-10-06T05:02:20.823Z,100.00
2022-10-06T05:04:51.918Z,100.00
2022-10-06T05:07:20.975Z,100.00
2022-10-06T05:09:48.461Z,100.00
2022-10-06T05:12:15.842Z,100.00
2022-10-06T05:14:45.527Z,100.00
2022-10-06T05:17:12.682Z,100.00
2022-10-06T05:19:40.148Z,100.00
2022-10-06T05:22:08.029Z,100.00
2022-10-06T05:24:36.076Z,100.00
2022-10-06T05:27:04.473Z,100.00
2022-10-06T05:29:34.482Z,100.00
2022-10-06T05:32:03.521Z,100.00
2022-10-06T05:34:30.922Z,100.00
2022-10-06T05:36:58.146Z,100.00
2022-10-06T05:39:25.532Z,100.00
2022-10-06T05:41:56.640Z,100.00
2022-10-06T05:44:24.927Z,100.00
2022-10-06T05:46:52.329Z,100.00
2022-10-06T05:49:20.345Z,95.46
2022-10-06T05:51:53.228Z,90.42
2022-10-06T05:54:29.038Z,78.42
2022-10-06T05:56:56.480Z,75.03
2022-10-06T05:59:23.915Z,69.92
2022-10-06T06:01:53.427Z,66.36
2022-10-06T06:04:31.672Z,64.71
2022-10-06T06:06:59.060Z,56.46
2022-10-06T06:09:28.892Z,56.69
2022-10-06T06:12:00.330Z,60.38
2022-10-06T06:15:02.365Z,75.15
2022-10-06T06:17:38.109Z,85.80
2022-10-06T06:20:06.806Z,86.41
2022-10-06T06:22:35.932Z,89.00
2022-10-06T06:25:05.074Z,94.29
2022-10-06T06:27:32.482Z,94.09
2022-10-06T06:29:59.773Z,96.71
2022-10-06T06:32:28.737Z,98.33
2022-10-06T06:34:57.451Z,100.00
2022-10-06T06:37:25.210Z,99.05
2022-10-06T06:39:52.584Z,96.96
2022-10-06T06:42:21.468Z,100.00
2022-10-06T06:44:56.211Z,100.00
2022-10-06T06:47:37.493Z,85.20
2022-10-06T06:50:10.396Z,78.92
2022-10-06T06:52:39.327Z,67.95
2022-10-06T06:55:09.540Z,75.60
2022-10-06T06:57:37.108Z,86.31
2022-10-06T07:00:08.103Z,91.02
2022-10-06T07:02:37.343Z,91.86
2022-10-06T07:05:05.358Z,97.49
2022-10-06T07:07:32.654Z,99.33
2022-10-06T07:10:00.845Z,98.30
2022-10-06T07:12:29.660Z,97.91
2022-10-06T07:15:17.006Z,77.76
2022-10-06T07:18:05.987Z,63.20
2022-10-06T07:20:51.885Z,61.10
2022-10-06T07:23:39.733Z,55.04
2022-10-06T07:26:11.882Z,59.16
2022-10-06T07:28:42.481Z,68.91
2022-10-06T07:31:10.860Z,62.58
2022-10-06T07:33:40.956Z,62.31
2022-10-06T07:36:09.848Z,68.12
2022-10-06T07:38:39.892Z,76.54
2022-10-06T07:41:18.945Z,84.84
2022-10-06T07:44:00.910Z,91.80
2022-10-06T07:46:33.415Z,97.75
2022-10-06T07:49:09.975Z,89.34
2022-10-06T07:51:37.423Z,67.85
2022-10-06T07:54:04.892Z,55.43
2022-10-06T07:56:55.724Z,47.79
2022-10-06T07:59:22.866Z,41.54
2022-10-06T08:01:52.527Z,41.38
2022-10-06T08:04:20.031Z,42.05
2022-10-06T08:06:49.517Z,44.25
2022-10-06T08:09:16.679Z,43.93
2022-10-06T08:11:45.168Z,44.40
2022-10-06T08:14:15.116Z,44.82
2022-10-06T08:16:42.373Z,42.66
2022-10-06T08:19:11.690Z,44.65
2022-10-06T08:21:39.716Z,45.51
2022-10-06T08:24:07.308Z,44.83
2022-10-06T08:26:34.811Z,43.77
2022-10-06T08:29:03.430Z,46.30
2022-10-06T08:31:32.163Z,48.44
2022-10-06T08:33:59.725Z,47.84
2022-10-06T08:36:31.464Z,45.96
2022-10-06T08:39:00.177Z,42.46
2022-10-06T08:41:37.070Z,40.37
2022-10-06T08:44:18.606Z,41.29
2022-10-06T08:47:13.913Z,38.40
2022-10-06T08:49:46.789Z,38.39
2022-10-06T08:52:37.481Z,41.48
2022-10-06T08:55:07.686Z,41.27
2022-10-06T08:57:47.291Z,44.70
2022-10-06T09:00:21.171Z,42.50
2022-10-06T09:02:50.705Z,41.26
2022-10-06T09:05:28.456Z,46.14
2022-10-06T09:07:56.346Z,46.29
2022-10-06T09:10:39.490Z,47.70
2022-10-06T09:13:21.592Z,46.46
2022-10-06T09:15:55.466Z,51.76
2022-10-06T09:18:49.787Z,57.13
2022-10-06T09:21:26.634Z,58.01
2022-10-06T09:24:05.973Z,53.57
2022-10-06T09:26:34.321Z,48.43
2022-10-06T09:29:01.825Z,45.30
2022-10-06T09:31:38.234Z,42.48
2022-10-06T09:34:05.703Z,43.87
2022-10-06T09:36:32.867Z,45.30
2022-10-06T09:39:00.514Z,42.87
2022-10-06T09:41:33.319Z,40.60
2022-10-06T09:44:25.157Z,38.50
2022-10-06T09:46:52.696Z,39.41
2022-10-06T09:49:22.701Z,39.46
2022-10-06T09:52:16.285Z,38.07
2022-10-06T09:54:44.839Z,37.99
2022-10-06T09:57:16.528Z,36.77
2022-10-06T09:59:46.034Z,37.47
2022-10-06T10:02:37.250Z,39.74
2022-10-06T10:05:07.744Z,43.11
2022-10-06T10:07:36.382Z,43.75
2022-10-06T10:10:21.328Z,39.32
2022-10-06T10:12:53.806Z,39.17
2022-10-06T10:15:20.917Z,43.08
2022-10-06T10:17:57.251Z,42.23
2022-10-06T10:20:51.098Z,43.50
2022-10-06T10:23:28.589Z,48.66
2022-10-06T10:26:14.334Z,51.36
2022-10-06T10:28:42.788Z,50.03
2022-10-06T10:31:39.354Z,50.24
2022-10-06T10:34:24.289Z,50.96
2022-10-06T10:36:57.679Z,54.51
2022-10-06T10:39:37.010Z,53.35
2022-10-06T10:42:12.181Z,50.75
2022-10-06T10:44:50.548Z,47.83
2022-10-06T10:47:25.934Z,43.99
2022-10-06T10:50:02.728Z,44.36
2022-10-06T10:52:38.337Z,44.31
2022-10-06T10:55:27.478Z,42.27
2022-10-06T10:58:13.449Z,41.08
2022-10-06T11:00:45.975Z,42.55
2022-10-06T11:03:13.515Z,42.25
2022-10-06T11:05:43.335Z,45.25
2022-10-06T11:08:34.834Z,46.79
2022-10-06T11:11:08.492Z,50.46
2022-10-06T11:13:48.353Z,53.07
2022-10-06T11:16:28.505Z,55.76
2022-10-06T11:19:29.900Z,56.56
2022-10-06T11:22:08.285Z,57.15
2022-10-06T11:24:59.662Z,57.40
2022-10-06T11:27:37.027Z,55.83
2022-10-06T11:30:15.333Z,56.56
2022-10-06T11:32:54.637Z,56.72
2022-10-06T11:35:29.865Z,57.67
2022-10-06T11:38:07.482Z,57.98
2022-10-06T11:40:52.871Z,56.63
2022-10-06T11:43:34.354Z,56.38
2022-10-06T11:46:14.169Z,54.19
2022-10-06T11:48:43.821Z,55.48
2022-10-06T11:51:17.323Z,55.66
2022-10-06T11:53:45.229Z,55.36
2022-10-06T11:56:19.560Z,56.76
2022-10-06T11:58:55.957Z,57.30
2022-10-06T12:01:35.331Z,57.61
2022-10-06T12:04:08.781Z,56.86
2022-10-06T12:06:41.916Z,59.32
2022-10-06T12:09:40.337Z,59.34
2022-10-06T12:12:19.650Z,58.54
2022-10-06T12:18:01.489Z,57.21
2022-10-06T12:20:47.575Z,58.59
2022-10-06T12:23:38.657Z,60.20
2022-10-06T12:26:19.971Z,60.08
2022-10-06T12:28:56.401Z,60.70
2022-10-06T12:31:53.898Z,61.84
2022-10-06T12:34:39.330Z,62.46
2022-10-06T12:37:28.657Z,62.05
2022-10-06T12:40:33.189Z,61.55
2022-10-06T12:43:12.380Z,62.49
2022-10-06T12:45:46.301Z,63.63
2022-10-06T12:48:36.425Z,63.32
2022-10-06T12:51:28.168Z,63.63
2022-10-06T12:54:00.028Z,63.19
2022-10-06T12:56:34.184Z,62.29
2022-10-06T12:59:44.120Z,61.94
2022-10-06T13:02:19.201Z,61.74
2022-10-06T13:04:55.457Z,62.16
2022-10-06T13:07:28.634Z,62.52
2022-10-06T13:10:21.662Z,62.78
2022-10-06T13:12:52.044Z,62.26
2022-10-06T13:15:41.568Z,62.75
2022-10-06T13:18:22.116Z,62.59
2022-10-06T13:20:52.577Z,62.49
2022-10-06T13:23:31.185Z,61.48
2022-10-06T13:26:15.087Z,62.24
2022-10-06T13:28:42.270Z,62.97
2022-10-06T13:31:18.154Z,63.20
2022-10-06T13:33:47.577Z,64.28
2022-10-06T13:36:15.403Z,64.23
2022-10-06T13:38:42.997Z,64.11
2022-10-06T13:41:30.341Z,63.84
2022-10-06T13:44:00.470Z,63.16
2022-10-06T13:46:31.156Z,63.19
2022-10-06T13:49:03.442Z,63.67
2022-10-06T13:51:32.771Z,63.64
2022-10-06T13:54:04.134Z,65.47
2022-10-06T13:56:40.117Z,66.15
2022-10-06T13:59:38.414Z,66.61
2022-10-06T14:02:17.971Z,67.77
2022-10-06T14:05:05.723Z,67.19
2022-10-06T14:07:33.247Z,65.35
2022-10-06T14:10:00.493Z,65.69
2022-10-06T14:12:27.664Z,66.65
2022-10-06T14:14:55.151Z,66.46
2022-10-06T14:17:25.724Z,72.50
2022-10-06T14:19:52.892Z,67.99
2022-10-06T14:22:38.335Z,67.86
2022-10-06T14:25:12.070Z,70.05
2022-10-06T14:27:39.451Z,71.19
2022-10-06T14:30:07.563Z,72.70
2022-10-06T14:32:38.841Z,71.71
2022-10-06T14:35:10.916Z,73.38
2022-10-06T14:37:38.117Z,71.63
2022-10-06T14:40:11.538Z,72.83
2022-10-06T14:42:39.259Z,71.49
2022-10-06T14:45:08.102Z,74.83
2022-10-06T14:47:35.286Z,71.30
2022-10-06T14:50:02.689Z,66.36
2022-10-06T14:52:29.844Z,67.86
2022-10-06T14:54:57.867Z,67.81
2022-10-06T14:57:25.376Z,69.79
2022-10-06T14:59:52.865Z,66.96
2022-10-06T15:02:21.212Z,65.33
2022-10-06T15:04:48.462Z,66.59
2022-10-06T15:07:34.505Z,68.18
2022-10-06T15:10:03.724Z,69.09
2022-10-06T15:12:33.935Z,70.44
2022-10-06T15:15:01.425Z,69.57
2022-10-06T15:17:30.163Z,71.23
2022-10-06T15:19:57.493Z,71.43
2022-10-06T15:22:24.662Z,73.06
2022-10-06T15:24:52.070Z,72.05
2022-10-06T15:27:37.950Z,72.80
2022-10-06T15:30:05.894Z,73.94
2022-10-06T15:32:33.047Z,75.05
2022-10-06T15:35:00.356Z,76.07
2022-10-06T15:37:27.769Z,74.27
2022-10-06T15:39:54.913Z,74.78
2022-10-06T15:42:24.264Z,75.42
2022-10-06T15:44:52.115Z,75.57
2022-10-06T15:47:19.343Z,75.66
2022-10-06T15:49:47.111Z,76.94
2022-10-06T15:52:14.545Z,76.52
2022-10-06T15:54:41.874Z,78.02
2022-10-06T15:57:15.216Z,78.45
2022-10-06T15:59:45.246Z,79.13
2022-10-06T16:02:14.889Z,78.34
2022-10-06T16:04:43.258Z,78.95
2022-10-06T16:07:14.128Z,78.49
2022-10-06T16:09:49.583Z,77.56
2022-10-06T16:12:19.955Z,79.70
2022-10-06T16:14:47.822Z,79.01
2022-10-06T16:17:15.729Z,78.60
2022-10-06T16:19:43.257Z,78.83
2022-10-06T16:22:16.614Z,78.31
2022-10-06T16:24:44.163Z,78.29
2022-10-06T16:27:15.856Z,78.67
2022-10-06T16:29:43.072Z,80.13
2022-10-06T16:32:10.900Z,80.11
2022-10-06T16:34:38.265Z,80.66
2022-10-06T16:37:05.772Z,80.01
2022-10-06T16:39:32.995Z,80.38
2022-10-06T16:42:00.449Z,80.77
2022-10-06T16:44:27.592Z,80.64
2022-10-06T16:46:54.950Z,81.42
2022-10-06T16:49:24.529Z,85.81
2022-10-06T16:51:51.732Z,82.90
2022-10-06T16:54:18.990Z,82.67
2022-10-06T16:56:48.657Z,82.54
2022-10-06T16:59:20.617Z,82.48
2022-10-06T17:01:49.273Z,80.76
2022-10-06T17:04:19.701Z,82.58
2022-10-06T17:06:50.063Z,82.58
2022-10-06T17:09:20.039Z,81.54
2022-10-06T17:11:50.930Z,82.47
2022-10-06T17:14:28.875Z,82.94
2022-10-06T17:17:05.885Z,82.70
2022-10-06T17:19:39.924Z,84.05
2022-10-06T17:22:12.225Z,84.17
2022-10-06T17:24:41.024Z,83.44
2022-10-06T17:27:08.905Z,83.11
2022-10-06T17:29:37.189Z,83.53
2022-10-06T17:32:05.363Z,84.88
2022-10-06T17:34:34.508Z,82.51
2022-10-06T17:37:02.661Z,84.44
2022-10-06T17:39:30.678Z,84.47
2022-10-06T17:41:57.954Z,84.36
2022-10-06T17:44:29.223Z,84.63
2022-10-06T17:46:58.892Z,86.76
2022-10-06T17:49:26.614Z,87.27
2022-10-06T17:51:55.345Z,86.04
2022-10-06T17:54:25.477Z,86.01
2022-10-06T17:56:55.963Z,87.29
2022-10-06T17:59:28.567Z,88.02
2022-10-06T18:01:57.855Z,89.14
2022-10-06T18:04:26.608Z,89.58
2022-10-06T18:06:54.287Z,90.36
2022-10-06T18:09:22.202Z,92.14
2022-10-06T18:11:54.996Z,89.78
2022-10-06T18:14:25.193Z,90.69
2022-10-06T18:16:59.934Z,91.04
2022-10-06T18:19:32.170Z,91.42
2022-10-06T18:22:02.405Z,89.26
2022-10-06T18:24:31.722Z,91.40
2022-10-06T18:27:01.004Z,92.10
2022-10-06T18:29:33.737Z,91.15
2022-10-06T18:32:38.579Z,91.94
2022-10-06T18:37:36.592Z,92.78
2022-10-06T18:40:06.994Z,92.97
2022-10-06T18:42:34.487Z,94.00
2022-10-06T18:45:20.615Z,95.47
2022-10-06T18:48:06.387Z,94.49
2022-10-06T18:50:35.241Z,96.06
2022-10-06T18:53:04.336Z,97.38
2022-10-06T18:55:32.079Z,96.62
2022-10-06T18:57:59.464Z,96.85
2022-10-06T19:00:26.711Z,96.61
2022-10-06T19:02:56.171Z,97.07
2022-10-06T19:05:23.844Z,96.88
2022-10-06T19:07:53.813Z,98.01
2022-10-06T19:10:21.372Z,99.79
2022-10-06T19:12:48.646Z,100.00
2022-10-06T19:15:20.357Z,100.00
2022-10-06T19:17:49.777Z,100.00
2022-10-06T19:20:18.564Z,100.00
2022-10-06T19:22:47.745Z,99.74
2022-10-06T19:25:18.912Z,98.18
2022-10-06T19:27:46.911Z,97.29
2022-10-06T19:30:14.623Z,96.24
2022-10-06T19:32:41.869Z,95.12
2022-10-06T19:35:10.569Z,95.82
2022-10-06T19:37:38.827Z,95.15
2022-10-06T19:40:08.750Z,95.49
2022-10-06T19:42:48.096Z,96.25
2022-10-06T19:45:17.311Z,96.55
2022-10-06T19:47:45.737Z,96.31
2022-10-06T19:50:13.691Z,95.19
2022-10-06T19:52:42.366Z,96.43
2022-10-06T19:55:09.688Z,95.56
2022-10-06T19:57:36.893Z,97.68
2022-10-06T20:00:06.095Z,96.89
2022-10-06T20:02:42.733Z,97.41
2022-10-06T20:05:15.812Z,99.30
2022-10-06T20:07:45.727Z,98.69
2022-10-06T20:10:14.029Z,100.00
2022-10-06T20:12:41.622Z,100.00
2022-10-06T20:15:10.200Z,99.95
2022-10-06T20:17:37.894Z,100.00
2022-10-06T20:20:05.574Z,100.00
2022-10-06T20:22:32.821Z,100.00
2022-10-06T20:25:02.003Z,99.91
2022-10-06T20:27:29.846Z,100.00
2022-10-06T20:29:58.076Z,99.93
2022-10-06T20:32:25.496Z,98.71
2022-10-06T20:34:52.905Z,100.00
2022-10-06T20:37:20.078Z,99.88
2022-10-06T20:40:19.692Z,100.00
2022-10-06T20:42:49.561Z,100.00
2022-10-06T20:45:17.181Z,99.76
2022-10-06T20:47:45.703Z,99.26
2022-10-06T20:50:13.945Z,100.00
2022-10-06T20:52:41.171Z,100.00
2022-10-06T20:55:08.715Z,100.00
2022-10-06T20:57:36.452Z,100.00
2022-10-06T21:00:04.276Z,100.00
2022-10-06T21:02:33.412Z,100.00
2022-10-06T21:05:02.245Z,100.00
2022-10-06T21:07:29.521Z,100.00
2022-10-06T21:09:56.939Z,100.00
2022-10-06T21:12:24.354Z,100.00
2022-10-06T21:14:51.946Z,100.00
2022-10-06T21:17:19.869Z,100.00
2022-10-06T21:19:47.050Z,100.00
2022-10-06T21:22:14.398Z,100.00
2022-10-06T21:24:41.879Z,100.00
2022-10-06T21:27:09.071Z,100.00
2022-10-06T21:29:36.435Z,100.00
2022-10-06T21:32:03.832Z,100.00
2022-10-06T21:34:31.717Z,100.00
2022-10-06T21:36:59.049Z,100.00
2022-10-06T21:39:26.428Z,100.00
2022-10-06T21:41:53.646Z,100.00
2022-10-06T21:44:20.929Z,100.00
2022-10-06T21:46:51.016Z,100.00
2022-10-06T21:49:20.642Z,100.00
2022-10-06T21:51:50.306Z,100.00
2022-10-06T21:54:18.151Z,100.00
2022-10-06T21:56:45.821Z,100.00
2022-10-06T21:59:13.494Z,100.00
2022-10-06T22:01:45.755Z,100.00
2022-10-06T22:04:14.661Z,100.00
2022-10-06T22:06:44.588Z,100.00
2022-10-06T22:09:20.737Z,100.00
2022-10-06T22:11:49.272Z,100.00
2022-10-06T22:14:18.098Z,100.00
2022-10-06T22:16:45.557Z,100.00
2022-10-06T22:19:14.821Z,100.00
2022-10-06T22:21:44.446Z,100.00
2022-10-06T22:24:17.971Z,100.00
2022-10-06T22:26:46.143Z,100.00
2022-10-06T22:29:15.775Z,100.00
2022-10-06T22:31:44.702Z,100.00
2022-10-06T22:34:15.805Z,100.00
2022-10-06T22:36:43.097Z,100.00
2022-10-06T22:39:10.844Z,100.00
2022-10-06T22:41:38.531Z,100.00
2022-10-06T22:44:05.766Z,100.00
2022-10-06T22:46:35.650Z,100.00
2022-10-06T22:49:04.511Z,100.00
2022-10-06T22:51:31.784Z,100.00
2022-10-06T22:54:00.025Z,100.00
2022-10-06T22:56:29.875Z,100.00
2022-10-06T22:58:59.892Z,100.00
2022-10-06T23:01:28.888Z,100.00
2022-10-06T23:03:57.479Z,100.00
2022-10-06T23:06:25.070Z,100.00
2022-10-06T23:08:52.799Z,100.00
2022-10-06T23:11:21.734Z,100.00
2022-10-06T23:13:50.513Z,100.00
2022-10-06T23:16:19.562Z,100.00
2022-10-06T23:18:48.056Z,100.00
2022-10-06T23:21:21.972Z,100.00
2022-10-06T23:23:56.051Z,100.00
2022-10-06T23:26:23.860Z,100.00
2022-10-06T23:28:56.730Z,100.00
2022-10-06T23:31:24.755Z,100.00
2022-10-06T23:33:52.614Z,100.00
2022-10-06T23:36:19.835Z,100.00
2022-10-06T23:38:47.896Z,100.00
2022-10-06T23:41:15.848Z,100.00
2022-10-06T23:43:43.711Z,100.00
2022-10-06T23:46:11.538Z,100.00
2022-10-06T23:48:39.027Z,100.00
2022-10-06T23:51:12.580Z,100.00
2022-10-06T23:53:40.182Z,100.00
2022-10-06T23:56:08.295Z,100.00
2022-10-06T23:58:35.603Z,100.00
